Time;durP1;ratioP1;P1;durP2;ratioP2;P2;SDS_P1;SDS_P2;PMS_P1;PMS_P2;Temp;Humidity;BMP_temperature;BMP_pressure;BME280_temperature;BME280_humidity;BME280_pressure;Samples;Min_cycle;Max_cycle;Signal;HPM_P1;HPM_P2
2023/05/28 00:00:56;;;;;;;10.60;5.20;;;;;;;;;;5057654;28;20501;-70
2023/05/28 00:03:23;;;;;;;13.82;5.90;;;;;;;;;;5057598;28;20208;-69
2023/05/28 00:05:50;;;;;;;10.30;5.70;;;;;;;;;;5060030;28;20236;-69
2023/05/28 00:08:16;;;;;;;7.75;5.80;;;;;;;;;;5060235;28;20197;-69
2023/05/28 00:10:43;;;;;;;9.93;5.93;;;;;;;;;;5060031;28;20197;-69
2023/05/28 00:13:10;;;;;;;8.05;5.75;;;;;;;;;;5060682;28;20224;-69
2023/05/28 00:15:37;;;;;;;7.35;5.72;;;;;;;;;;5060531;28;20201;-69
2023/05/28 00:18:04;;;;;;;11.57;6.30;;;;;;;;;;5062602;28;20212;-69
2023/05/28 00:20:30;;;;;;;11.75;5.72;;;;;;;;;;5063976;28;20197;-69
2023/05/28 00:22:56;;;;;;;9.50;6.30;;;;;;;;;;5063939;28;20204;-69
2023/05/28 00:25:23;;;;;;;8.68;5.85;;;;;;;;;;5063773;28;20267;-69
2023/05/28 00:27:49;;;;;;;8.63;5.53;;;;;;;;;;5063759;28;20579;-69
2023/05/28 00:30:17;;;;;;;12.23;6.18;;;;;;;;;;5063515;28;20243;-69
2023/05/28 00:32:43;;;;;;;9.02;5.80;;;;;;;;;;5063855;28;20208;-68
2023/05/28 00:35:09;;;;;;;9.57;6.05;;;;;;;;;;5063554;28;20216;-68
2023/05/28 00:37:35;;;;;;;10.45;5.85;;;;;;;;;;5063644;28;20243;-68
2023/05/28 00:40:02;;;;;;;7.00;5.60;;;;;;;;;;5063548;28;20520;-68
2023/05/28 00:42:28;;;;;;;8.07;5.80;;;;;;;;;;5063387;28;20197;-68
2023/05/28 00:44:54;;;;;;;8.82;5.82;;;;;;;;;;5062963;28;20220;-69
2023/05/28 00:47:22;;;;;;;8.50;5.47;;;;;;;;;;5063358;28;20204;-69
2023/05/28 00:49:49;;;;;;;9.15;5.53;;;;;;;;;;5063250;28;20201;-69
2023/05/28 00:52:16;;;;;;;9.32;5.68;;;;;;;;;;5063058;28;20205;-69
2023/05/28 00:54:42;;;;;;;11.70;5.53;;;;;;;;;;5062913;28;20212;-69
2023/05/28 00:57:09;;;;;;;9.75;5.47;;;;;;;;;;5063533;28;20205;-68
2023/05/28 00:59:35;;;;;;;9.23;5.68;;;;;;;;;;5063132;28;20415;-68
2023/05/28 01:02:01;;;;;;;7.53;5.55;;;;;;;;;;5063532;28;20197;-68
2023/05/28 01:04:29;;;;;;;7.63;4.93;;;;;;;;;;5063378;28;20442;-68
2023/05/28 01:06:56;;;;;;;8.65;4.85;;;;;;;;;;5063699;28;20197;-69
2023/05/28 01:09:23;;;;;;;8.77;4.80;;;;;;;;;;5063321;28;20197;-69
2023/05/28 01:11:51;;;;;;;8.13;4.60;;;;;;;;;;5062936;28;20199;-69
2023/05/28 01:14:17;;;;;;;6.20;4.53;;;;;;;;;;5062588;28;20205;-69
2023/05/28 01:16:46;;;;;;;8.55;5.05;;;;;;;;;;5063275;28;20204;-69
2023/05/28 01:19:16;;;;;;;7.40;4.75;;;;;;;;;;5062939;28;20204;-69
2023/05/28 01:21:44;;;;;;;7.68;4.57;;;;;;;;;;5063469;28;20201;-69
2023/05/28 01:24:13;;;;;;;6.68;4.97;;;;;;;;;;5063414;28;20204;-69
2023/05/28 01:26:40;;;;;;;9.23;5.22;;;;;;;;;;5064106;28;20197;-69
2023/05/28 01:29:13;;;;;;;8.10;5.20;;;;;;;;;;5062785;28;20217;-69
2023/05/28 01:31:40;;;;;;;7.22;5.47;;;;;;;;;;5063780;28;20219;-69
2023/05/28 01:34:06;;;;;;;5.45;4.93;;;;;;;;;;5063106;28;20272;-69
2023/05/28 01:36:35;;;;;;;6.50;5.07;;;;;;;;;;5063555;28;20197;-69
2023/05/28 01:39:02;;;;;;;9.80;4.50;;;;;;;;;;5063690;28;20563;-69
2023/05/28 01:41:30;;;;;;;8.98;4.82;;;;;;;;;;5063535;28;20423;-69
2023/05/28 01:43:57;;;;;;;9.15;4.88;;;;;;;;;;5063238;28;20205;-69
2023/05/28 01:46:24;;;;;;;7.18;5.20;;;;;;;;;;5063220;28;20221;-69
2023/05/28 01:48:51;;;;;;;5.45;4.53;;;;;;;;;;5063486;28;20417;-69
2023/05/28 01:51:17;;;;;;;8.85;4.38;;;;;;;;;;5063441;28;20197;-69
2023/05/28 01:53:44;;;;;;;6.63;4.97;;;;;;;;;;5063043;28;20272;-69
2023/05/28 01:56:10;;;;;;;5.25;4.28;;;;;;;;;;5063118;28;20204;-69
2023/05/28 01:58:37;;;;;;;9.88;4.88;;;;;;;;;;5063205;28;20427;-69
2023/05/28 02:01:07;;;;;;;6.70;4.97;;;;;;;;;;5062987;28;20197;-69
2023/05/28 02:03:34;;;;;;;13.82;5.35;;;;;;;;;;5063018;28;20197;-69
2023/05/28 02:06:00;;;;;;;6.63;4.80;;;;;;;;;;5062932;28;20485;-69
2023/05/28 02:08:26;;;;;;;6.53;4.93;;;;;;;;;;5062957;28;20374;-69
2023/05/28 02:10:52;;;;;;;8.13;5.07;;;;;;;;;;5062828;28;20197;-69
2023/05/28 02:13:19;;;;;;;5.97;5.38;;;;;;;;;;5062735;28;20201;-69
2023/05/28 02:15:46;;;;;;;9.00;4.97;;;;;;;;;;5062678;28;20209;-69
2023/05/28 02:18:13;;;;;;;7.25;5.00;;;;;;;;;;5062658;28;20235;-69
2023/05/28 02:20:39;;;;;;;6.20;4.30;;;;;;;;;;5062754;28;20252;-69
2023/05/28 02:23:05;;;;;;;6.85;4.55;;;;;;;;;;5062404;28;20199;-69
2023/05/28 02:25:31;;;;;;;7.82;5.00;;;;;;;;;;5062622;28;20213;-69
2023/05/28 02:27:58;;;;;;;8.68;4.68;;;;;;;;;;5062483;28;20254;-69
2023/05/28 02:30:24;;;;;;;5.80;4.80;;;;;;;;;;5062295;28;20205;-69
2023/05/28 02:32:52;;;;;;;7.38;5.30;;;;;;;;;;5062434;28;20566;-69
2023/05/28 02:35:19;;;;;;;9.57;4.68;;;;;;;;;;5062665;28;20376;-69
2023/05/28 02:37:46;;;;;;;6.30;4.57;;;;;;;;;;5062493;28;20204;-69
2023/05/28 02:40:13;;;;;;;6.55;4.72;;;;;;;;;;5062089;28;20201;-69
2023/05/28 02:42:39;;;;;;;10.75;5.05;;;;;;;;;;5062205;28;20235;-69
2023/05/28 02:45:06;;;;;;;10.63;4.78;;;;;;;;;;5061946;28;20223;-69
2023/05/28 02:47:32;;;;;;;5.75;4.75;;;;;;;;;;5062416;28;20201;-69
2023/05/28 02:50:00;;;;;;;7.90;4.63;;;;;;;;;;5062351;28;20251;-69
2023/05/28 02:52:26;;;;;;;6.80;4.47;;;;;;;;;;5062235;28;20197;-68
2023/05/28 02:54:52;;;;;;;10.75;5.13;;;;;;;;;;5062030;28;20220;-68
2023/05/28 02:57:19;;;;;;;8.27;5.07;;;;;;;;;;5062000;28;20197;-68
2023/05/28 02:59:45;;;;;;;6.40;4.63;;;;;;;;;;5062329;28;20200;-68
2023/05/28 03:02:11;;;;;;;7.82;4.80;;;;;;;;;;5062204;28;20197;-68
2023/05/28 03:04:38;;;;;;;9.40;5.15;;;;;;;;;;5062028;28;20196;-68
2023/05/28 03:07:06;;;;;;;6.63;4.82;;;;;;;;;;5062108;28;20284;-69
2023/05/28 03:09:32;;;;;;;5.63;5.00;;;;;;;;;;5061897;28;20228;-69
2023/05/28 03:11:58;;;;;;;7.47;4.97;;;;;;;;;;5061866;28;20430;-69
2023/05/28 03:14:24;;;;;;;8.82;5.15;;;;;;;;;;5061871;28;20509;-69
2023/05/28 03:16:51;;;;;;;6.70;4.68;;;;;;;;;;5061754;28;20194;-69
2023/05/28 03:19:17;;;;;;;5.80;4.32;;;;;;;;;;5062230;28;20235;-69
2023/05/28 03:21:43;;;;;;;6.32;5.13;;;;;;;;;;5061884;28;20204;-69
2023/05/28 03:24:11;;;;;;;7.88;5.05;;;;;;;;;;5061647;28;20197;-69
2023/05/28 03:26:37;;;;;;;8.00;4.50;;;;;;;;;;5061640;28;20231;-69
2023/05/28 03:29:03;;;;;;;6.53;4.35;;;;;;;;;;5061765;28;20255;-69
2023/05/28 03:31:30;;;;;;;5.88;4.72;;;;;;;;;;5061731;28;20259;-69
2023/05/28 03:33:56;;;;;;;6.88;5.03;;;;;;;;;;5061507;28;20197;-69
2023/05/28 03:36:24;;;;;;;8.02;4.63;;;;;;;;;;5061731;28;20193;-69
2023/05/28 03:38:50;;;;;;;8.52;5.10;;;;;;;;;;5061474;28;20197;-69
2023/05/28 03:41:18;;;;;;;8.85;5.15;;;;;;;;;;5061878;28;20208;-69
2023/05/28 03:43:44;;;;;;;7.70;4.95;;;;;;;;;;5061741;28;20201;-69
2023/05/28 03:46:10;;;;;;;6.55;4.90;;;;;;;;;;5061566;28;20221;-69
2023/05/28 03:48:36;;;;;;;7.78;5.15;;;;;;;;;;5061609;28;20259;-69
2023/05/28 03:51:04;;;;;;;7.07;4.88;;;;;;;;;;5061461;28;20197;-69
2023/05/28 03:53:30;;;;;;;7.78;5.10;;;;;;;;;;5064117;28;20197;-69
2023/05/28 03:55:56;;;;;;;11.63;5.35;;;;;;;;;;5065588;28;20197;-69
2023/05/28 03:58:24;;;;;;;8.65;5.18;;;;;;;;;;5065572;28;20197;-68
2023/05/28 04:00:50;;;;;;;11.23;4.90;;;;;;;;;;5065494;28;20197;-68
2023/05/28 04:03:16;;;;;;;10.13;5.57;;;;;;;;;;5065169;28;20197;-68
2023/05/28 04:05:43;;;;;;;7.45;5.10;;;;;;;;;;5065183;28;20267;-68
2023/05/28 04:08:09;;;;;;;7.63;5.05;;;;;;;;;;5065006;28;20197;-68
2023/05/28 04:10:35;;;;;;;10.60;5.15;;;;;;;;;;5065007;28;20196;-68
2023/05/28 04:13:01;;;;;;;8.68;5.15;;;;;;;;;;5065027;28;20208;-68
2023/05/28 04:15:29;;;;;;;6.70;4.68;;;;;;;;;;5064851;28;20205;-69
2023/05/28 04:17:55;;;;;;;5.32;4.80;;;;;;;;;;5064973;28;20243;-68
2023/05/28 04:20:22;;;;;;;9.27;5.28;;;;;;;;;;5064938;28;20201;-68
2023/05/28 04:22:48;;;;;;;6.90;5.70;;;;;;;;;;5064725;28;20266;-68
2023/05/28 04:25:14;;;;;;;10.88;5.10;;;;;;;;;;5064510;28;20197;-68
2023/05/28 04:27:41;;;;;;;6.40;5.18;;;;;;;;;;5064833;28;20241;-68
2023/05/28 04:30:08;;;;;;;7.07;5.13;;;;;;;;;;5064771;28;20196;-68
2023/05/28 04:32:38;;;;;;;10.55;5.10;;;;;;;;;;5064727;28;20509;-68
2023/05/28 04:35:05;;;;;;;6.82;5.30;;;;;;;;;;5064899;28;20212;-68
2023/05/28 04:37:32;;;;;;;6.70;5.93;;;;;;;;;;5064559;28;20216;-68
2023/05/28 04:39:59;;;;;;;6.25;4.82;;;;;;;;;;5064548;28;20268;-68
2023/05/28 04:42:28;;;;;;;6.00;5.40;;;;;;;;;;5064545;28;20267;-68
2023/05/28 04:44:54;;;;;;;10.10;5.50;;;;;;;;;;5064352;28;20544;-68
2023/05/28 04:47:22;;;;;;;8.45;5.40;;;;;;;;;;5064397;28;20267;-68
2023/05/28 04:49:49;;;;;;;9.50;5.50;;;;;;;;;;5064270;28;20197;-68
2023/05/28 04:52:16;;;;;;;6.85;5.00;;;;;;;;;;5064384;28;20570;-68
2023/05/28 04:54:42;;;;;;;7.00;5.03;;;;;;;;;;5064412;28;20201;-68
2023/05/28 04:57:09;;;;;;;8.80;5.28;;;;;;;;;;5064372;28;20208;-69
2023/05/28 04:59:35;;;;;;;7.55;5.30;;;;;;;;;;5064135;28;20235;-69
2023/05/28 05:02:02;;;;;;;7.95;5.13;;;;;;;;;;5064047;28;20243;-69
2023/05/28 05:04:28;;;;;;;7.68;5.25;;;;;;;;;;5063544;28;20197;-69
2023/05/28 05:06:55;;;;;;;7.38;4.90;;;;;;;;;;5064310;28;20452;-69
2023/05/28 05:09:23;;;;;;;8.27;5.25;;;;;;;;;;5064039;28;20508;-69
2023/05/28 05:11:49;;;;;;;8.00;5.25;;;;;;;;;;5063986;28;20204;-69
2023/05/28 05:14:15;;;;;;;5.90;5.30;;;;;;;;;;5063695;28;20205;-68
2023/05/28 05:16:42;;;;;;;8.73;5.93;;;;;;;;;;5063863;28;20189;-68
2023/05/28 05:19:08;;;;;;;7.03;5.07;;;;;;;;;;5063819;28;20228;-68
2023/05/28 05:21:35;;;;;;;6.53;5.82;;;;;;;;;;5063861;28;20209;-68
2023/05/28 05:24:03;;;;;;;5.90;4.93;;;;;;;;;;5063592;28;20505;-68
2023/05/28 05:26:29;;;;;;;9.52;5.78;;;;;;;;;;5063760;28;20221;-68
2023/05/28 05:28:55;;;;;;;8.05;5.47;;;;;;;;;;5063568;28;20217;-68
2023/05/28 05:31:22;;;;;;;8.05;5.53;;;;;;;;;;5063501;28;20243;-68
2023/05/28 05:33:48;;;;;;;10.18;5.60;;;;;;;;;;5063344;28;20275;-68
2023/05/28 05:36:14;;;;;;;6.30;5.10;;;;;;;;;;5063598;28;20200;-68
2023/05/28 05:38:41;;;;;;;7.18;5.35;;;;;;;;;;5063507;28;20198;-68
2023/05/28 05:41:08;;;;;;;7.95;5.43;;;;;;;;;;5063301;28;20197;-68
2023/05/28 05:43:35;;;;;;;14.82;5.60;;;;;;;;;;5063149;28;20197;-68
2023/05/28 05:46:01;;;;;;;8.77;5.97;;;;;;;;;;5063230;28;20440;-68
2023/05/28 05:48:27;;;;;;;6.88;5.43;;;;;;;;;;5063461;28;20400;-68
2023/05/28 05:50:55;;;;;;;8.82;5.47;;;;;;;;;;5063345;28;20243;-68
2023/05/28 05:53:21;;;;;;;8.77;5.80;;;;;;;;;;5063072;28;20291;-68
2023/05/28 05:55:47;;;;;;;10.05;5.90;;;;;;;;;;5063189;28;20201;-69
2023/05/28 05:58:15;;;;;;;9.75;6.43;;;;;;;;;;5063162;28;20197;-69
2023/05/28 06:00:42;;;;;;;9.50;6.40;;;;;;;;;;5062948;28;20224;-69
2023/05/28 06:03:08;;;;;;;12.13;7.03;;;;;;;;;;5063091;28;20252;-69
2023/05/28 06:05:35;;;;;;;8.90;6.72;;;;;;;;;;5062925;28;20197;-69
2023/05/28 06:08:02;;;;;;;11.73;7.60;;;;;;;;;;5063078;28;20366;-68
2023/05/28 06:10:29;;;;;;;10.02;6.97;;;;;;;;;;5062785;28;20223;-68
2023/05/28 06:12:55;;;;;;;12.75;6.70;;;;;;;;;;5062844;28;20201;-68
2023/05/28 06:15:24;;;;;;;12.63;6.38;;;;;;;;;;5061836;28;20276;-68
2023/05/28 06:17:51;;;;;;;17.30;6.63;;;;;;;;;;5062874;28;20193;-68
2023/05/28 06:20:19;;;;;;;6.53;5.72;;;;;;;;;;5062726;28;20392;-68
2023/05/28 06:22:45;;;;;;;13.93;6.47;;;;;;;;;;5063225;28;20201;-68
2023/05/28 06:25:11;;;;;;;10.88;6.47;;;;;;;;;;5062674;28;20235;-68
2023/05/28 06:27:38;;;;;;;14.85;6.72;;;;;;;;;;5062627;28;20450;-68
2023/05/28 06:30:05;;;;;;;14.32;6.65;;;;;;;;;;5063146;28;20438;-68
2023/05/28 06:32:33;;;;;;;9.52;5.53;;;;;;;;;;5063125;28;20212;-59
2023/05/28 06:34:59;;;;;;;13.50;6.43;;;;;;;;;;5063588;28;20235;-59
2023/05/28 06:37:25;;;;;;;12.18;6.38;;;;;;;;;;5064053;28;20201;-60
2023/05/28 06:39:51;;;;;;;8.48;5.80;;;;;;;;;;5063369;28;20204;-59
2023/05/28 06:42:18;;;;;;;7.90;5.35;;;;;;;;;;5063162;28;20197;-58
2023/05/28 06:44:44;;;;;;;9.45;6.00;;;;;;;;;;5063663;28;20197;-62
2023/05/28 06:47:10;;;;;;;7.53;5.07;;;;;;;;;;5063398;28;20224;-59
2023/05/28 06:49:38;;;;;;;8.88;5.65;;;;;;;;;;5063175;28;20203;-59
2023/05/28 06:52:04;;;;;;;13.45;6.30;;;;;;;;;;5063648;28;20421;-60
2023/05/28 06:54:31;;;;;;;13.15;5.45;;;;;;;;;;5063576;28;20197;-60
2023/05/28 06:56:57;;;;;;;10.10;5.47;;;;;;;;;;5063958;28;20201;-59
2023/05/28 06:59:23;;;;;;;10.48;5.68;;;;;;;;;;5063530;28;20243;-60
2023/05/28 07:01:49;;;;;;;9.82;5.70;;;;;;;;;;5063654;28;20243;-60
2023/05/28 07:04:15;;;;;;;8.35;5.25;;;;;;;;;;5063436;28;20243;-60
2023/05/28 07:06:43;;;;;;;9.00;6.00;;;;;;;;;;5063789;28;20217;-59
2023/05/28 07:09:10;;;;;;;10.93;6.40;;;;;;;;;;5063379;28;20497;-59
2023/05/28 07:11:36;;;;;;;8.45;5.07;;;;;;;;;;5063054;28;20208;-59
2023/05/28 07:14:02;;;;;;;10.45;6.03;;;;;;;;;;5054244;28;20548;-59
2023/05/28 07:16:29;;;;;;;11.27;5.43;;;;;;;;;;5057102;28;20213;-59
2023/05/28 07:18:55;;;;;;;10.30;5.40;;;;;;;;;;5057828;28;20209;-59
2023/05/28 07:21:21;;;;;;;6.18;4.80;;;;;;;;;;5052356;28;20219;-59
2023/05/28 07:23:49;;;;;;;11.85;5.13;;;;;;;;;;5056822;28;20213;-59
2023/05/28 07:26:15;;;;;;;8.63;4.97;;;;;;;;;;5057885;28;20850;-59
2023/05/28 07:28:41;;;;;;;9.45;5.57;;;;;;;;;;5061432;28;20232;-59
2023/05/28 07:31:08;;;;;;;10.45;5.43;;;;;;;;;;5062459;28;20542;-58
2023/05/28 07:33:34;;;;;;;6.70;4.70;;;;;;;;;;5062785;28;20225;-60
2023/05/28 07:36:00;;;;;;;10.85;4.88;;;;;;;;;;5059757;28;20209;-60
2023/05/28 07:38:26;;;;;;;10.70;4.97;;;;;;;;;;5060387;28;20232;-60
2023/05/28 07:40:54;;;;;;;9.73;5.32;;;;;;;;;;5062433;28;20200;-60
2023/05/28 07:43:20;;;;;;;8.68;5.10;;;;;;;;;;5065910;28;20193;-60
2023/05/28 07:45:46;;;;;;;15.23;5.00;;;;;;;;;;5065968;28;20259;-60
2023/05/28 07:48:13;;;;;;;10.35;5.07;;;;;;;;;;5066040;28;20287;-59
2023/05/28 07:50:40;;;;;;;11.00;4.35;;;;;;;;;;5065912;28;20559;-60
2023/05/28 07:53:07;;;;;;;11.75;4.97;;;;;;;;;;5065376;28;20276;-60
2023/05/28 07:55:33;;;;;;;9.10;4.63;;;;;;;;;;5066078;28;20205;-60
2023/05/28 07:58:01;;;;;;;11.40;4.90;;;;;;;;;;5065766;28;20565;-60
2023/05/28 08:00:27;;;;;;;10.55;4.05;;;;;;;;;;5065929;28;20244;-60
2023/05/28 08:02:54;;;;;;;10.02;4.80;;;;;;;;;;5065670;28;20504;-59
2023/05/28 08:05:20;;;;;;;13.95;4.78;;;;;;;;;;5065681;28;20204;-60
2023/05/28 08:07:46;;;;;;;8.57;5.00;;;;;;;;;;5065428;28;20220;-60
2023/05/28 08:10:13;;;;;;;5.47;4.10;;;;;;;;;;5065717;28;20427;-58
2023/05/28 08:12:39;;;;;;;8.80;4.40;;;;;;;;;;5065110;28;20296;-59
2023/05/28 08:15:08;;;;;;;7.93;4.50;;;;;;;;;;5065221;28;20212;-60
2023/05/28 08:17:34;;;;;;;9.55;4.55;;;;;;;;;;5065478;28;20200;-59
2023/05/28 08:20:00;;;;;;;7.03;4.45;;;;;;;;;;5065455;28;20196;-60
2023/05/28 08:22:26;;;;;;;7.18;4.13;;;;;;;;;;5065467;28;20205;-60
2023/05/28 08:24:53;;;;;;;9.00;4.63;;;;;;;;;;5065481;28;20201;-60
2023/05/28 08:27:19;;;;;;;10.77;5.00;;;;;;;;;;5065286;28;20224;-59
2023/05/28 08:29:45;;;;;;;11.38;5.00;;;;;;;;;;5065327;28;20205;-60
2023/05/28 08:32:13;;;;;;;13.68;5.15;;;;;;;;;;5065237;28;20198;-60
2023/05/28 08:34:39;;;;;;;8.85;4.72;;;;;;;;;;5065030;28;20205;-60
2023/05/28 08:37:07;;;;;;;8.88;4.65;;;;;;;;;;5065142;28;20197;-60
2023/05/28 08:39:33;;;;;;;7.35;4.30;;;;;;;;;;5064446;28;20197;-60
2023/05/28 08:41:59;;;;;;;9.90;3.97;;;;;;;;;;5065212;28;20280;-60
2023/05/28 08:44:26;;;;;;;7.40;4.57;;;;;;;;;;5065076;28;20197;-60
2023/05/28 08:46:52;;;;;;;10.40;4.45;;;;;;;;;;5064885;28;20524;-60
2023/05/28 08:49:21;;;;;;;8.05;4.57;;;;;;;;;;5065024;28;20235;-60
2023/05/28 08:51:49;;;;;;;8.70;4.28;;;;;;;;;;5065257;28;20215;-60
2023/05/28 08:54:16;;;;;;;9.00;4.60;;;;;;;;;;5065016;28;20208;-60
2023/05/28 08:56:42;;;;;;;14.13;4.78;;;;;;;;;;5065063;28;20419;-60
2023/05/28 08:59:10;;;;;;;7.63;4.03;;;;;;;;;;5064945;28;20501;-60
2023/05/28 09:01:36;;;;;;;11.30;4.10;;;;;;;;;;5064486;28;20197;-60
2023/05/28 09:04:03;;;;;;;8.90;4.40;;;;;;;;;;5064256;28;20414;-59
2023/05/28 09:06:32;;;;;;;13.35;4.72;;;;;;;;;;5064918;28;20493;-60
2023/05/28 09:08:58;;;;;;;9.88;4.43;;;;;;;;;;5064806;28;20242;-60
2023/05/28 09:11:24;;;;;;;12.95;4.47;;;;;;;;;;5064372;28;20201;-60
2023/05/28 09:13:51;;;;;;;8.70;4.28;;;;;;;;;;5064065;28;20197;-60
2023/05/28 09:16:21;;;;;;;9.88;4.45;;;;;;;;;;5064281;28;20330;-60
2023/05/28 09:18:49;;;;;;;9.40;4.60;;;;;;;;;;5064127;28;20216;-60
2023/05/28 09:21:15;;;;;;;9.10;3.97;;;;;;;;;;5064346;28;20201;-60
2023/05/28 09:23:44;;;;;;;8.48;4.35;;;;;;;;;;5064097;28;20420;-60
2023/05/28 09:26:10;;;;;;;6.85;3.90;;;;;;;;;;5063861;28;20268;-60
2023/05/28 09:28:41;;;;;;;8.95;4.30;;;;;;;;;;5063712;28;20469;-59
2023/05/28 09:31:07;;;;;;;11.82;4.88;;;;;;;;;;5063501;28;20196;-60
2023/05/28 09:33:34;;;;;;;6.22;3.75;;;;;;;;;;5063955;28;20197;-60
2023/05/28 09:36:00;;;;;;;8.25;3.78;;;;;;;;;;5063718;28;20205;-60
2023/05/28 09:38:27;;;;;;;8.13;4.22;;;;;;;;;;5063810;28;20192;-60
2023/05/28 09:40:55;;;;;;;8.70;3.85;;;;;;;;;;5063927;28;20340;-60
2023/05/28 09:43:27;;;;;;;6.90;3.80;;;;;;;;;;5063186;28;20204;-61
2023/05/28 09:45:53;;;;;;;10.13;4.22;;;;;;;;;;5063356;28;20546;-61
2023/05/28 09:48:19;;;;;;;7.95;3.83;;;;;;;;;;5063226;28;20224;-61
2023/05/28 09:50:47;;;;;;;7.00;4.13;;;;;;;;;;5062248;28;20197;-61
2023/05/28 09:53:13;;;;;;;24.65;12.55;;;;;;;;;;5063121;28;20218;-60
2023/05/28 09:55:39;;;;;;;5.82;3.70;;;;;;;;;;5063320;28;20203;-60
2023/05/28 09:58:07;;;;;;;8.02;4.18;;;;;;;;;;5063069;28;20250;-61
2023/05/28 10:00:34;;;;;;;12.20;3.92;;;;;;;;;;5062913;28;20244;-61
2023/05/28 10:03:03;;;;;;;7.60;3.90;;;;;;;;;;5063032;28;20235;-60
2023/05/28 10:05:33;;;;;;;7.00;3.88;;;;;;;;;;5063057;28;20203;-60
2023/05/28 10:08:00;;;;;;;10.07;4.30;;;;;;;;;;5062740;28;20217;-60
2023/05/28 10:10:28;;;;;;;8.50;4.00;;;;;;;;;;5062907;28;20427;-61
2023/05/28 10:12:55;;;;;;;5.63;3.50;;;;;;;;;;5062738;28;20196;-61
2023/05/28 10:15:22;;;;;;;8.32;4.07;;;;;;;;;;5062480;28;20204;-60
2023/05/28 10:17:50;;;;;;;6.85;3.42;;;;;;;;;;5062757;28;20239;-60
2023/05/28 10:20:17;;;;;;;10.00;3.67;;;;;;;;;;5062657;28;20200;-61
2023/05/28 10:22:43;;;;;;;7.03;3.80;;;;;;;;;;5062718;28;20558;-60
2023/05/28 10:25:10;;;;;;;8.95;3.95;;;;;;;;;;5062472;28;20501;-61
2023/05/28 10:27:37;;;;;;;7.85;4.20;;;;;;;;;;5062304;28;20251;-61
2023/05/28 10:30:03;;;;;;;8.40;3.60;;;;;;;;;;5062714;28;20499;-60
2023/05/28 10:32:38;;;;;;;7.43;3.40;;;;;;;;;;5062510;28;20262;-61
2023/05/28 10:35:04;;;;;;;7.30;3.63;;;;;;;;;;5062177;28;20196;-61
2023/05/28 10:37:30;;;;;;;8.77;3.78;;;;;;;;;;5062676;28;20260;-61
2023/05/28 10:39:57;;;;;;;6.88;3.85;;;;;;;;;;5062157;28;20243;-61
2023/05/28 10:42:23;;;;;;;6.93;3.33;;;;;;;;;;5062262;28;20247;-61
2023/05/28 10:44:50;;;;;;;7.05;3.38;;;;;;;;;;5062247;28;20200;-60
2023/05/28 10:47:18;;;;;;;9.73;4.05;;;;;;;;;;5062176;28;20196;-61
2023/05/28 10:49:58;;;;;;;6.32;3.40;;;;;;;;;;5061936;28;20448;-61
2023/05/28 10:52:25;;;;;;;5.57;3.55;;;;;;;;;;5062007;28;20197;-61
2023/05/28 10:54:53;;;;;;;6.80;3.75;;;;;;;;;;5062141;28;20255;-60
2023/05/28 10:57:20;;;;;;;7.28;3.85;;;;;;;;;;5062029;28;20227;-60
2023/05/28 10:59:47;;;;;;;7.85;3.50;;;;;;;;;;5061875;28;20197;-60
2023/05/28 11:02:16;;;;;;;5.70;2.97;;;;;;;;;;5053789;28;20208;-60
2023/05/28 11:04:43;;;;;;;6.10;3.92;;;;;;;;;;5056076;28;20247;-60
2023/05/28 11:07:12;;;;;;;6.20;3.58;;;;;;;;;;5057095;28;20216;-61
2023/05/28 11:09:39;;;;;;;6.22;3.50;;;;;;;;;;5057217;28;20212;-61
2023/05/28 11:12:06;;;;;;;7.68;3.70;;;;;;;;;;5057030;28;20527;-61
2023/05/28 11:14:36;;;;;;;10.45;3.65;;;;;;;;;;5057060;28;20475;-61
2023/05/28 11:17:06;;;;;;;5.95;3.13;;;;;;;;;;5057331;28;20215;-59
2023/05/28 11:19:32;;;;;;;14.20;4.32;;;;;;;;;;5057043;28;20211;-62
2023/05/28 11:22:00;;;;;;;7.53;3.88;;;;;;;;;;5056965;28;20212;-60
2023/05/28 11:24:27;;;;;;;11.27;3.88;;;;;;;;;;5057024;28;20240;-60
2023/05/28 11:26:54;;;;;;;5.22;3.63;;;;;;;;;;5057442;28;20550;-60
2023/05/28 11:29:21;;;;;;;6.00;3.67;;;;;;;;;;5057354;28;20476;-60
2023/05/28 11:31:47;;;;;;;7.82;3.40;;;;;;;;;;5057910;28;20216;-60
2023/05/28 11:34:14;;;;;;;9.23;4.15;;;;;;;;;;5056856;28;20569;-61
2023/05/28 11:36:41;;;;;;;7.47;3.80;;;;;;;;;;5057064;28;20258;-61
2023/05/28 11:39:07;;;;;;;3.42;3.13;;;;;;;;;;5057187;28;20204;-61
2023/05/28 11:41:35;;;;;;;8.13;3.40;;;;;;;;;;5056583;28;20212;-60
2023/05/28 11:44:01;;;;;;;6.32;3.80;;;;;;;;;;5056506;28;20438;-59
2023/05/28 11:46:28;;;;;;;8.20;3.80;;;;;;;;;;5057743;28;20433;-61
2023/05/28 11:48:54;;;;;;;7.60;3.50;;;;;;;;;;5061559;28;20221;-61
2023/05/28 11:51:20;;;;;;;6.53;3.50;;;;;;;;;;5061511;28;20354;-61
2023/05/28 11:53:47;;;;;;;7.28;3.40;;;;;;;;;;5061285;28;20267;-61
2023/05/28 11:56:13;;;;;;;6.80;3.58;;;;;;;;;;5061133;28;20204;-61
2023/05/28 11:58:48;;;;;;;8.32;3.80;;;;;;;;;;5060944;28;20231;-61
2023/05/28 12:01:15;;;;;;;9.25;3.42;;;;;;;;;;5060888;28;20449;-61
2023/05/28 12:03:41;;;;;;;4.72;3.08;;;;;;;;;;5061018;28;20550;-61
2023/05/28 12:06:07;;;;;;;6.07;3.35;;;;;;;;;;5061066;28;20234;-62
2023/05/28 12:08:34;;;;;;;7.45;4.28;;;;;;;;;;5061242;28;20257;-61
2023/05/28 12:11:00;;;;;;;7.18;3.80;;;;;;;;;;5061113;28;20250;-62
2023/05/28 12:13:30;;;;;;;6.88;4.03;;;;;;;;;;5062131;28;20219;-61
2023/05/28 12:16:06;;;;;;;6.70;3.88;;;;;;;;;;5064797;28;20208;-61
2023/05/28 12:18:33;;;;;;;7.95;3.97;;;;;;;;;;5064894;28;20192;-61
2023/05/28 12:20:59;;;;;;;8.32;4.15;;;;;;;;;;5064667;28;20200;-61
2023/05/28 12:23:25;;;;;;;7.22;3.67;;;;;;;;;;5064385;28;20197;-61
2023/05/28 12:25:52;;;;;;;6.82;3.97;;;;;;;;;;5064440;28;20233;-61
2023/05/28 12:28:19;;;;;;;8.88;3.40;;;;;;;;;;5064119;28;20224;-61
2023/05/28 12:30:48;;;;;;;7.93;3.80;;;;;;;;;;5064763;28;20207;-61
2023/05/28 12:33:16;;;;;;;7.80;3.72;;;;;;;;;;5064193;28;20204;-61
2023/05/28 12:35:42;;;;;;;7.20;3.97;;;;;;;;;;5064442;28;20519;-61
2023/05/28 12:38:08;;;;;;;8.93;4.22;;;;;;;;;;5064525;28;20196;-61
2023/05/28 12:40:35;;;;;;;6.38;4.20;;;;;;;;;;5064415;28;20197;-61
2023/05/28 12:43:01;;;;;;;8.57;4.10;;;;;;;;;;5064095;28;20212;-61
2023/05/28 12:45:28;;;;;;;6.13;3.97;;;;;;;;;;5064007;28;20508;-61
2023/05/28 12:47:54;;;;;;;6.00;3.80;;;;;;;;;;5064210;28;20219;-61
2023/05/28 12:50:23;;;;;;;6.20;4.18;;;;;;;;;;5064202;28;20268;-62
2023/05/28 12:52:49;;;;;;;7.28;3.65;;;;;;;;;;5063924;28;20224;-61
2023/05/28 12:55:15;;;;;;;3.83;3.22;;;;;;;;;;5063691;28;20196;-61
2023/05/28 12:57:41;;;;;;;7.97;4.00;;;;;;;;;;5064178;28;20201;-61
2023/05/28 13:00:10;;;;;;;8.43;3.60;;;;;;;;;;5063691;28;20197;-61
2023/05/28 13:02:37;;;;;;;10.18;3.92;;;;;;;;;;5063919;28;20264;-61
2023/05/28 13:05:03;;;;;;;7.28;3.67;;;;;;;;;;5063843;28;20251;-61
2023/05/28 13:07:30;;;;;;;8.90;4.05;;;;;;;;;;5063951;28;20557;-62
2023/05/28 13:09:57;;;;;;;4.13;3.38;;;;;;;;;;5063803;28;20227;-61
2023/05/28 13:12:23;;;;;;;5.97;3.60;;;;;;;;;;5063816;28;20205;-61
2023/05/28 13:14:49;;;;;;;9.77;3.90;;;;;;;;;;5063684;28;20278;-61
2023/05/28 13:17:16;;;;;;;7.07;3.55;;;;;;;;;;5063913;28;20416;-61
2023/05/28 13:19:42;;;;;;;5.38;3.88;;;;;;;;;;5063770;28;20231;-61
2023/05/28 13:22:10;;;;;;;7.50;4.00;;;;;;;;;;5063636;28;20391;-61
2023/05/28 13:24:38;;;;;;;5.32;3.45;;;;;;;;;;5063333;28;20196;-61
2023/05/28 13:27:04;;;;;;;5.93;3.67;;;;;;;;;;5063599;28;20197;-61
2023/05/28 13:29:31;;;;;;;4.20;3.40;;;;;;;;;;5063448;28;20221;-62
2023/05/28 13:31:57;;;;;;;3.92;3.30;;;;;;;;;;5063864;28;20196;-62
2023/05/28 13:34:23;;;;;;;4.57;3.60;;;;;;;;;;5063373;28;20196;-62
2023/05/28 13:36:50;;;;;;;6.88;3.75;;;;;;;;;;5063313;28;20197;-62
2023/05/28 13:39:16;;;;;;;5.18;3.85;;;;;;;;;;5063359;28;20372;-61
2023/05/28 13:41:44;;;;;;;5.43;3.40;;;;;;;;;;5063526;28;20201;-61
2023/05/28 13:44:13;;;;;;;7.45;3.50;;;;;;;;;;5063498;28;20418;-62
2023/05/28 13:46:39;;;;;;;5.43;3.30;;;;;;;;;;5063294;28;20264;-62
2023/05/28 13:49:05;;;;;;;5.60;3.95;;;;;;;;;;5063058;28;20216;-61
2023/05/28 13:51:32;;;;;;;5.78;3.90;;;;;;;;;;5063069;28;20229;-61
2023/05/28 13:53:58;;;;;;;6.00;3.80;;;;;;;;;;5062941;28;20255;-62
2023/05/28 13:56:25;;;;;;;6.53;3.92;;;;;;;;;;5063101;28;20219;-62
2023/05/28 13:58:53;;;;;;;4.90;3.78;;;;;;;;;;5063039;28;20500;-62
2023/05/28 14:01:20;;;;;;;5.32;3.70;;;;;;;;;;5062978;28;20196;-62
2023/05/28 14:03:46;;;;;;;5.72;3.80;;;;;;;;;;5062657;28;20224;-61
2023/05/28 14:06:13;;;;;;;5.30;3.90;;;;;;;;;;5062713;28;20200;-61
2023/05/28 14:08:39;;;;;;;5.78;3.95;;;;;;;;;;5062946;28;20238;-62
2023/05/28 14:11:05;;;;;;;6.30;4.20;;;;;;;;;;5062828;28;20196;-62
2023/05/28 14:13:32;;;;;;;5.65;4.10;;;;;;;;;;5062508;28;20208;-61
2023/05/28 14:16:00;;;;;;;7.57;3.88;;;;;;;;;;5063112;28;20489;-62
2023/05/28 14:18:26;;;;;;;6.53;3.80;;;;;;;;;;5062519;28;20199;-61
2023/05/28 14:20:52;;;;;;;5.22;4.13;;;;;;;;;;5062535;28;20204;-61
2023/05/28 14:23:19;;;;;;;4.90;3.80;;;;;;;;;;5062566;28;20231;-62
2023/05/28 14:25:46;;;;;;;8.55;4.40;;;;;;;;;;5062582;28;20446;-61
2023/05/28 14:28:12;;;;;;;6.57;4.63;;;;;;;;;;5062256;28;20255;-62
2023/05/28 14:30:38;;;;;;;5.25;4.28;;;;;;;;;;5062168;28;20209;-62
2023/05/28 14:33:06;;;;;;;9.82;4.40;;;;;;;;;;5062182;28;20532;-62
2023/05/28 14:35:32;;;;;;;7.38;3.88;;;;;;;;;;5062191;28;20497;-62
2023/05/28 14:37:58;;;;;;;9.13;4.40;;;;;;;;;;5062347;28;20226;-62